Tiempo atmosférico en la estación meteorológica de Taramundi, Ouria, Asturias (335 m.)



Fecha
DESCASC
Temp. máxima en grados centígrados (hora)
DESCASC
Temp. mínima en grados centígrados (hora)
DESCASC
Temp. media en grados centígrados
DESCASC
Racha de viento máxima en m/sg (hora)
DESCASC
Velocidad máxima media en intervalos de 10 minutos(hora)
DESCASC
Precipitaciones diarias en mm
DESCASC
Precipitaciones de 00:00 a 06:00 en mm
DESCASC
Precipitaciones de 06:00 a 12:00 en mm
DESCASC
Precipitaciones de 12:00 a 18:00 en mm
DESCASC
Precipitaciones de 18:00 a 24:00 en mm
DESCASC
28-02-2021 11 (14:00) 1.7 (08:20) 6.4 11.67 (15:40) 7.78 (14:40) 0.2 0 0.2 0 0
27-02-2021 12.7 (13:00) 4.5 (23:59) 8.6 10 (14:00) 7.5 (14:10) 0 0 0 0 0
26-02-2021 11.1 (15:30) 8.6 (00:00) 9.9 9.44 (02:10) 6.11 (02:10) 0 0 0 0 0
25-02-2021 10.6 (00:00) 6.9 (00:00) 8.8 7.5 (02:30) 5.28 (16:40) 13.6 4.6 3.4 3.4 2.2
24-02-2021 19.8 (15:10) 10.6 (00:00) 15.2 21.11 (14:00) 11.67 (14:10) 0 0 0 0 0
23-02-2021 19.5 (14:20) 10.3 (00:00) 14.9 18.33 (04:20) 11.39 (05:10) 0 0 0 0 0
22-02-2021 14.8 (17:00) 2.3 (00:00) 8.6 9.72 (23:59) 5.28 (11:50) 0 0 0 0 0
21-02-2021 9 (17:00) 4.3 (00:00) 6.7 6.39 (16:00) 4.17 (12:40) 17.8 5.4 11 1.4 0
20-02-2021 16.2 (10:20) 8 (00:00) 12.1 28.89 (11:50) 18.33 (11:30) 7.6 0 0 0 7.6
19-02-2021 16.6 (17:00) 10.3 (00:00) 13.5 26.39 (09:50) 15.28 (10:10) 0 0 0 0 0
18-02-2021 13.1 (15:20) 7.8 (00:00) 10.5 23.89 (02:40) 15.83 (00:20) 7.6 2.4 4.8 0.2 0.2
17-02-2021 15.4 (14:50) 6.5 (00:00) 10.9 25 (22:50) 15.56 (22:50) 1.6 0 0 0 1.6
16-02-2021 16.9 (00:00) 8.9 (00:00) 12.9 25.56 (07:20) 14.17 (06:30) 7 0 7 0 0
15-02-2021 20.6 (17:00) 15.7 (00:00) 18.2 21.39 (22:50) 12.5 (00:40) 0 0 0 0 0
14-02-2021 20.1 (15:20) 13.1 (00:00) 16.6 23.61 (22:10) 14.44 (22:10) 0 0 0 0 0
13-02-2021 16.2 (13:40) 10 (00:00) 13.1 15 (06:10) 9.44 (06:10) 0.4 0 0.4 0 0
12-02-2021 14.5 (17:10) 8.5 (00:00) 11.5 11.11 (00:30) 6.39 (12:50) 6 2.6 3.4 0 0
11-02-2021 15.3 (17:00) 10.5 (00:00) 12.9 18.89 (06:10) 12.22 (06:30) 15.6 1.6 1 1.2 11.8
10-02-2021 13 (16:30) 5.6 (00:00) 9.3 12.78 (00:50) 7.78 (14:50) 0.8 0.8 0 0 0
09-02-2021 10.7 (05:00) 6.2 (00:00) 8.4 24.17 (05:50) 14.72 (06:00) 12.4 0.2 9.6 1.6 1
08-02-2021 10.8 (16:50) 7.8 (00:00) 9.3 16.11 (23:59) 11.11 (22:40) 2.8 2.6 0 0.2 0
07-02-2021 11 (22:10) 1.1 (00:00) 6.1 21.94 (19:20) 13.33 (18:50) 2.6 0 0.2 0.6 1.8
06-02-2021 6.9 (15:00) 3.8 (00:00) 5.4 13.89 (07:00) 9.44 (07:00) 16.4 3.4 10.2 0.8 2
05-02-2021 8.4 (12:40) 6.7 (00:00) 7.5 12.78 (17:50) 8.33 (17:40) 13.6 0 0.6 4.6 8.4
04-02-2021 12.1 (13:30) 7 (00:00) 9.6 20.83 (02:10) 12.22 (01:30) 0.8 0 0 0.6 0.2
03-02-2021 14.5 (15:30) 8 (00:00) 11.3 22.22 (01:10) 12.78 (00:40) 4 3.6 0.2 0 0.2
02-02-2021 15.6 (14:30) 11.5 (00:00) 13.6 26.67 (11:50) 18.06 (11:50) 8 0 0.4 3.8 3.8
01-02-2021 15 (16:10) 11.6 (00:00) 13.3 23.33 (20:40) 14.44 (23:50) 0 0 0 0 0

Gráficas

Temp. máximas Temp. mínimas Temp. medias Precipitaciones Rachas de viento máximas Velocidades máximas media en intervalos de 10 minutos

Datos horarios

Fecha y hora oficial Temperatura (ºC) Velocidad del viento (km/h) Dirección del viento Racha (km/h) Dirección de racha Precipitación (mm) Presión (hPa) Tendencia (hPa) Humedad (%)
2021-03-02 23:00:00 9.5 0 Calma 4 Sur 0 -- -- 86
2021-03-02 22:00:00 9.6 0 Calma 3 Oeste 0 -- -- 86
2021-03-02 21:00:00 9.7 2 Sudoeste 6 Sur 0 -- -- 86
2021-03-02 20:00:00 10.4 3 Sur 9 Sudeste 0 -- -- 83
2021-03-02 19:00:00 11.5 4 Sur 21 Sur 0 -- -- 77
2021-03-02 18:00:00 12.2 12 Sur 29 Sur 0 -- -- 72
2021-03-02 17:00:00 12.5 17 Sur 31 Sur 0 -- -- 69
2021-03-02 16:00:00 12.4 21 Sur 37 Sudoeste 0 -- -- 68
2021-03-02 15:00:00 12.5 20 Sur 37 Sur 0 -- -- 72
2021-03-02 14:00:00 12.7 24 Sur 42 Sur 0 -- -- 69
2021-03-02 13:00:00 12.6 24 Sur 46 Sur 0 -- -- 72
2021-03-02 12:00:00 12 24 Sur 47 Sur 0 -- -- 75
2021-03-02 11:00:00 11.6 19 Sur 33 Sur 0 -- -- 80
2021-03-02 10:00:00 10.9 19 Sur 35 Sur 0 -- -- 83
2021-03-02 09:00:00 10 14 Sur 27 Sur 0 -- -- 85
2021-03-02 08:00:00 9.9 15 Sur 41 Sur 0 -- -- 87
2021-03-02 07:00:00 9.8 20 Sur 35 Sur 0 -- -- 94
2021-03-02 06:00:00 9.5 9 Sur 28 Sur 0 -- -- 98
2021-03-02 05:00:00 9.2 12 Sur 24 Sur 0 -- -- 100
2021-03-02 04:00:00 8 2 Sudoeste 6 Sur 0 -- -- 100
2021-03-02 03:00:00 8.2 3 Sudoeste 7 Sur 0 -- -- 100
2021-03-02 02:00:00 8.1 0 Calma 8 Sur 0 -- -- 100
2021-03-02 01:00:00 8.6 5 Sur 15 Sur 0 -- -- 100
2021-03-02 00:00:00 8.6 8 Sur 21 Sur 0.2 -- -- 100
2021-03-01 23:00:00 8.4 0 Calma 31 Sudeste 1.4 -- -- 100
2021-03-01 22:00:00 8.4 8 Sur 12 Sur 0.2 -- -- 100
2021-03-01 21:00:00 8.7 3 Sur 10 Norte 3.6 -- -- 100
2021-03-01 20:00:00 8.9 4 Norte 18 Norte 1.8 -- -- 100
2021-03-01 19:00:00 8.9 4 Nordeste 9 Norte 3.6 -- -- 100
2021-03-01 18:00:00 8.9 10 Norte 16 Norte 1 -- -- 100
2021-03-01 17:00:00 9 10 Norte 19 Norte 0.2 -- -- 98
2021-03-01 16:00:00 10.7 10 Norte 33 Sur 0 -- -- 90
2021-03-01 15:00:00 10.2 18 Sur 38 Sur 1 -- -- 92
2021-03-01 14:00:00 10.6 6 Sudoeste 31 Sur 0.6 -- -- 89
2021-03-01 13:00:00 9.2 13 Sur 33 Sur 0.4 -- -- 97
2021-03-01 12:00:00 8.3 4 Norte 9 Sur 1.6 -- -- 100
2021-03-01 11:00:00 8.2 5 Noroeste 15 Oeste 3.2 -- -- 99
2021-03-01 10:00:00 7.5 0 Calma 7 Sudeste 0.6 -- -- 97
2021-03-01 09:00:00 6.8 2 Sur 6 Sur 0.4 -- -- 97
2021-03-01 08:00:00 5.7 3 Sur 11 Sudoeste 0 -- -- 99
2021-03-01 07:00:00 4.9 3 Sur 9 Sur 0 -- -- 99
2021-03-01 06:00:00 4.6 8 Sur 10 Sur 0 -- -- 99
2021-03-01 05:00:00 5.6 4 Sur 15 Sur 0 -- -- 99
2021-03-01 04:00:00 5.7 9 Sur 15 Sur 0 -- -- 100
2021-03-01 03:00:00 5.2 5 Sur 10 Sur 0 -- -- 100
2021-03-01 02:00:00 4.5 5 Sur 9 Sudoeste 0 -- -- 100
2021-03-01 01:00:00 4.7 4 Sur 7 Sur 0 -- -- 100
2021-03-01 00:00:00 4.2 3 Sur 5 Sur 0 -- -- 99
2021-02-28 23:00:00 4.8 3 Sur 5 Sur 0 -- -- 98
2021-02-28 22:00:00 5.1 0 Calma 9 Noroeste 0 -- -- 96
2021-02-28 21:00:00 6 5 Norte 23 Norte 0 -- -- 94
2021-02-28 20:00:00 6.6 19 Norte 26 Norte 0 -- -- 94
2021-02-28 19:00:00 7.5 15 Norte 27 Norte 0 -- -- 90
2021-02-28 18:00:00 8.4 23 Norte 38 Norte 0 -- -- 86
2021-02-28 17:00:00 9.8 27 Norte 40 Norte 0 -- -- 82
2021-02-28 16:00:00 10.5 27 Norte 42 Norte 0 -- -- 78
2021-02-28 15:00:00 11 24 Norte 37 Norte 0 -- -- 77
2021-02-28 14:00:00 11 21 Norte 33 Norte 0 -- -- 78
2021-02-28 13:00:00 10.2 22 Norte 37 Norte 0 -- -- 79
2021-02-28 12:00:00 9.1 27 Norte 39 Norte 0 -- -- 88
2021-02-28 11:00:00 7.6 24 Norte 34 Norte 0.2 -- -- 100
2021-02-28 10:00:00 4.4 9 Norte 13 Norte 0 -- -- 100
2021-02-28 09:00:00 1.8 2 Sur 6 Sur 0 -- -- 100
2021-02-28 08:00:00 1.8 3 Sur 8 Sudoeste 0 -- -- 100
2021-02-28 07:00:00 2.1 3 Sudoeste 5 Sudoeste 0 -- -- 100
2021-02-28 06:00:00 2.5 0 Calma 6 Sudoeste 0 -- -- 100
2021-02-28 05:00:00 2.5 3 Sur 5 Sur 0 -- -- 100
2021-02-28 04:00:00 3.2 2 Sur 4 Sur 0 -- -- 100
2021-02-28 03:00:00 3.3 0 Calma 4 Sur 0 -- -- 100
2021-02-28 02:00:00 3.8 0 Calma 10 Norte 0 -- -- 100
2021-02-28 01:00:00 4.1 6 Norte 12 Norte 0 -- -- 100
2021-02-28 00:00:00 4.5 8 Norte 13 Norte 0 -- -- 100
2021-02-27 23:00:00 5.3 12 Norte 19 Norte 0 -- -- 99
2021-02-27 22:00:00 6 12 Norte 22 Norte 0 -- -- 98
2021-02-27 21:00:00 6.9 17 Norte 27 Norte 0 -- -- 97
2021-02-27 20:00:00 7.5 17 Norte 27 Norte 0 -- -- 96
2021-02-27 19:00:00 8.5 17 Norte 25 Norte 0 -- -- 94
2021-02-27 18:00:00 9.8 17 Norte 31 Norte 0 -- -- 93
2021-02-27 17:00:00 9.9 25 Norte 33 Norte 0 -- -- 92
2021-02-27 16:00:00 10.6 22 Norte 32 Norte 0 -- -- 90
2021-02-27 15:00:00 12.5 21 Norte 36 Norte 0 -- -- 87
2021-02-27 14:00:00 12.1 26 Norte 36 Norte 0 -- -- 87
2021-02-27 13:00:00 12.7 17 Norte 31 Norte 0 -- -- 82
2021-02-27 12:00:00 12.1 22 Norte 33 Norte 0 -- -- 89
2021-02-27 11:00:00 10.6 19 Norte 24 Norte 0 -- -- 96
2021-02-27 10:00:00 9.8 12 Norte 18 Norte 0 -- -- 100
2021-02-27 09:00:00 8.9 7 Norte 11 Norte 0 -- -- 100
2021-02-27 08:00:00 8.8 7 Norte 13 Norte 0 -- -- 100
2021-02-27 07:00:00 8.9 9 Norte 17 Norte 0 -- -- 100
2021-02-27 06:00:00 8.7 12 Norte 17 Norte 0 -- -- 100
2021-02-27 05:00:00 8.5 10 Norte 13 Norte 0 -- -- 100
2021-02-27 04:00:00 8.8 8 Norte 12 Norte 0 -- -- 100
2021-02-27 03:00:00 8.8 7 Norte 10 Norte 0 -- -- 100
2021-02-27 02:00:00 8.6 6 Norte 9 Norte 0 -- -- 100
2021-02-27 01:00:00 8.8 5 Norte 14 Noroeste 0 -- -- 100
2021-02-27 00:00:00 9.2 12 Norte 15 Noroeste 0 -- -- 100
2021-02-26 23:00:00 9.3 12 Norte 20 Norte 0 -- -- 100
2021-02-26 22:00:00 9.4 13 Norte 18 Norte 0 -- -- 100
2021-02-26 21:00:00 9.5 14 Norte 19 Norte 0 -- -- 100
2021-02-26 20:00:00 9.6 14 Norte 20 Norte 0 -- -- 100
2021-02-26 19:00:00 10 15 Norte 21 Norte 0 -- -- 99
2021-02-26 18:00:00 10.3 14 Norte 21 Norte 0 -- -- 99
2021-02-26 17:00:00 10.7 14 Norte 26 Norte 0 -- -- 99
2021-02-26 16:00:00 11.1 16 Norte 22 Norte 0 -- -- 100
2021-02-26 15:00:00 11 15 Norte 21 Norte 0 -- -- 100
2021-02-26 14:00:00 10.7 17 Norte 26 Norte 0 -- -- 100
2021-02-26 13:00:00 10.3 17 Norte 28 Norte 0 -- -- 100
2021-02-26 12:00:00 9.7 18 Norte 32 Norte 0 -- -- 100
2021-02-26 11:00:00 9.3 17 Norte 23 Norte 0 -- -- 100
2021-02-26 10:00:00 9.2 15 Norte 21 Norte 0 -- -- 100
2021-02-26 09:00:00 8.8 14 Norte 22 Norte 0 -- -- 100
2021-02-26 08:00:00 8.7 13 Norte 19 Norte 0 -- -- 100
2021-02-26 07:00:00 8.6 12 Norte 15 Norte 0 -- -- 100
2021-02-26 06:00:00 8.7 13 Norte 19 Norte 0 -- -- 100
2021-02-26 05:00:00 8.8 11 Norte 18 Norte 0 -- -- 100
2021-02-26 04:00:00 8.9 14 Norte 26 Norte 0 -- -- 100
2021-02-26 03:00:00 9 19 Norte 34 Norte 0 -- -- 100
2021-02-26 02:00:00 8.9 21 Norte 28 Norte 0 -- -- 100
2021-02-26 01:00:00 8.7 16 Norte 23 Norte 0 -- -- 100
2021-02-26 00:00:00 8.6 13 Norte 21 Norte 0.2 -- -- 100
2021-02-25 23:00:00 8.5 15 Norte 27 Norte 0 -- -- 100
2021-02-25 22:00:00 8.3 18 Norte 25 Norte 0.2 -- -- 100
2021-02-25 21:00:00 8.2 18 Norte 26 Norte 0 -- -- 100
2021-02-25 20:00:00 8.1 15 Norte 19 Norte 0.2 -- -- 100
2021-02-25 19:00:00 8 10 Norte 16 Norte 1.6 -- -- 100
2021-02-25 18:00:00 8 11 Norte 23 Norte 1.6 -- -- 100
2021-02-25 17:00:00 8 15 Norte 24 Norte 0.4 -- -- 100
2021-02-25 16:00:00 7.9 18 Norte 22 Norte 0 -- -- 100
2021-02-25 15:00:00 8.1 13 Norte 16 Norte 0 -- -- 100
2021-02-25 14:00:00 8.1 11 Norte 13 Norte 0.2 -- -- 100
2021-02-25 13:00:00 8 0 Calma 7 Norte 1.2 -- -- 100
2021-02-25 12:00:00 8.2 7 Norte 9 Norte 0.2 -- -- 100
2021-02-25 11:00:00 7.6 5 Norte 8 Norte 0.2 -- -- 100
2021-02-25 10:00:00 7.3 0 Calma 9 Sur 0 -- -- 100
2021-02-25 09:00:00 7 6 Sur 9 Sur 0 -- -- 100
2021-02-25 08:00:00 7 0 Calma 7 Sudoeste 0.4 -- -- 100
2021-02-25 07:00:00 7.6 5 Sur 10 Sur 2.6 -- -- 100
2021-02-25 06:00:00 7.7 4 Sur 6 Sur 0.8 -- -- 99
2021-02-25 05:00:00 7.8 3 Sur 6 Sur 1.4 -- -- 99
2021-02-25 04:00:00 7.8 0 Calma 11 Nordeste 2.2 -- -- 97
2021-02-25 03:00:00 8.5 10 Norte 27 Norte 0.2 -- -- 93
2021-02-25 02:00:00 10.4 6 Norte 14 Noroeste 0 -- -- 93
2021-02-25 01:00:00 10.4 0 Calma 10 Sudoeste 0 -- -- 93
2021-02-25 00:00:00 10.6 8 Sur 14 Sur 0 -- -- 90
2021-02-24 23:00:00 11 3 Sur 15 Nordeste 0 -- -- 79
2021-02-24 22:00:00 13 9 Norte 15 Norte 0 -- -- 66
2021-02-24 21:00:00 13.3 6 Sur 15 Sur 0 -- -- 61
2021-02-24 20:00:00 14.7 8 Sur 33 Sur 0 -- -- 56
2021-02-24 19:00:00 16.1 16 Sur 44 Sur 0 -- -- 51
2021-02-24 18:00:00 17 18 Sur 35 Sudoeste 0 -- -- 49
2021-02-24 17:00:00 18.5 18 Sur 50 Sur 0 -- -- 44
2021-02-24 16:00:00 19.5 25 Sur 53 Sur 0 -- -- 39
2021-02-24 15:00:00 19.7 34 Sur 64 Sur 0 -- -- 38
2021-02-24 14:00:00 19.1 39 Sur 76 Sur 0 -- -- 37
2021-02-24 13:00:00 18.2 30 Sur 65 Sudoeste 0 -- -- 41
2021-02-24 12:00:00 17.4 34 Sur 70 Sur 0 -- -- 43
2021-02-24 11:00:00 15.9 33 Sur 59 Sur 0 -- -- 44
2021-02-24 10:00:00 14.2 30 Sur 57 Sur 0 -- -- 48
2021-02-24 09:00:00 13.1 31 Sur 60 Sur 0 -- -- 53
2021-02-24 08:00:00 13.1 24 Sur 63 Sudoeste 0 -- -- 53
2021-02-24 07:00:00 12.9 34 Sur 54 Sur 0 -- -- 54
2021-02-24 06:00:00 13 28 Sur 49 Sur 0 -- -- 54
2021-02-24 05:00:00 12.7 17 Sur 45 Sur 0 -- -- 52
2021-02-24 04:00:00 13.2 19 Sur 49 Sur 0 -- -- 48
2021-02-24 03:00:00 13.8 28 Sur 48 Sur 0 -- -- 43
2021-02-24 02:00:00 13.8 32 Sur 52 Sudoeste 0 -- -- 42
2021-02-24 01:00:00 13.8 29 Sur 49 Sur 0 -- -- 46
2021-02-24 00:00:00 14.7 26 Sur 42 Sur 0 -- -- 47
2021-02-23 23:00:00 14.9 20 Sur 45 Sur 0 -- -- 51
2021-02-23 22:00:00 14.8 21 Sur 35 Sur 0 -- -- 58
2021-02-23 21:00:00 15.3 15 Sur 30 Sur 0 -- -- 56
2021-02-23 20:00:00 16 9 Sur 23 Sudoeste 0 -- -- 55
2021-02-23 19:00:00 16.9 15 Sur 39 Sur 0 -- -- 53
2021-02-23 18:00:00 17.5 19 Sur 39 Sur 0 -- -- 51
2021-02-23 17:00:00 18.1 23 Sur 55 Sur 0 -- -- 50
2021-02-23 16:00:00 19.2 23 Sur 48 Sur 0 -- -- 48
2021-02-23 15:00:00 19.4 27 Sur 49 Sur 0 -- -- 48
2021-02-23 14:00:00 19.1 27 Sur 46 Sur 0 -- -- 48
2021-02-23 13:00:00 18.2 24 Sur 51 Sur 0 -- -- 47
2021-02-23 12:00:00 17.1 32 Sur 53 Sur 0 -- -- 47
2021-02-23 11:00:00 15.9 22 Sur 53 Sur 0 -- -- 46
2021-02-23 10:00:00 14.4 28 Sur 54 Sur 0 -- -- 46
2021-02-23 09:00:00 13.1 21 Sur 48 Sur 0 -- -- 46
2021-02-23 08:00:00 12.4 19 Sur 45 Sur 0 -- -- 47
2021-02-23 07:00:00 12.1 22 Sur 52 Sur 0 -- -- 49
2021-02-23 06:00:00 11.8 30 Sur 60 Sur 0 -- -- 49
2021-02-23 05:00:00 11.7 39 Sur 66 Sur 0 -- -- 50
2021-02-23 04:00:00 11.1 33 Sur 57 Sur 0 -- -- 53
2021-02-23 03:00:00 11 23 Sur 44 Sur 0 -- -- 54
2021-02-23 02:00:00 11.2 17 Sur 42 Sur 0 -- -- 53
2021-02-23 01:00:00 11.2 21 Sur 42 Sur 0 -- -- 53
2021-02-23 00:00:00 10.3 16 Sur 35 Sur 0 -- -- 57
2021-02-22 23:00:00 7.3 6 Sur 15 Sur 0 -- -- 75
2021-02-22 22:00:00 6.7 4 Sudoeste 8 Sudoeste 0 -- -- 73
2021-02-22 21:00:00 7.5 0 Calma 5 Sudeste 0 -- -- 65
2021-02-22 20:00:00 8.2 0 Calma 4 Sudoeste 0 -- -- 60
2021-02-22 19:00:00 9.6 0 Calma 6 Norte 0 -- -- 60
2021-02-22 18:00:00 11.6 4 Norte 17 Sur 0 -- -- 66
2021-02-22 17:00:00 14.8 7 Sudoeste 21 Sur 0 -- -- 45
2021-02-22 16:00:00 14.5 8 Sur 23 Sudeste 0 -- -- 47
2021-02-22 15:00:00 13.7 9 Sur 28 Sur 0 -- -- 59
2021-02-22 14:00:00 12.5 12 Sur 26 Sur 0 -- -- 61
2021-02-22 13:00:00 11.3 12 Sur 26 Sur 0 -- -- 64
2021-02-22 12:00:00 9.7 19 Sur 29 Sur 0 -- -- 71
2021-02-22 11:00:00 8 18 Sur 30 Sur 0 -- -- 88
2021-02-22 10:00:00 4.3 10 Sur 14 Sur 0 -- -- 100
2021-02-22 09:00:00 2.4 5 Sur 10 Sudoeste 0 -- -- 100
2021-02-22 08:00:00 2.4 5 Sur 14 Sur 0 -- -- 100
2021-02-22 07:00:00 3.4 8 Sur 14 Sur 0 -- -- 100
2021-02-22 06:00:00 3.7 7 Sur 14 Sur 0 -- -- 100
2021-02-22 05:00:00 3.6 8 Sur 13 Sur 0 -- -- 100
2021-02-22 04:00:00 3.6 5 Sudoeste 12 Sur 0 -- -- 100
2021-02-22 03:00:00 4.2 7 Sudoeste 13 Sudoeste 0 -- -- 100
2021-02-22 02:00:00 4 5 Sur 11 Sur 0 -- -- 100
2021-02-22 01:00:00 4.6 6 Sur 12 Sudoeste 0 -- -- 100
2021-02-22 00:00:00 4.3 4 Sur 9 Sur 0 -- -- 99
2021-02-21 23:00:00 4.7 4 Sur 6 Sur 0 -- -- 98
2021-02-21 22:00:00 5.3 3 Sur 6 Sudoeste 0 -- -- 98
2021-02-21 21:00:00 5.7 3 Sur 7 Sudoeste 0 -- -- 97
2021-02-21 20:00:00 6.2 4 Sur 9 Sudeste 0 -- -- 97
2021-02-21 19:00:00 7.5 2 Sur 5 Sur 0 -- -- 96
2021-02-21 18:00:00 7.7 2 Sudoeste 15 Sur 1.2 -- -- 92
2021-02-21 17:00:00 9 12 Sur 19 Sur 0 -- -- 84
2021-02-21 16:00:00 8.7 13 Sur 23 Sur 0 -- -- 85
2021-02-21 15:00:00 8.3 10 Sur 15 Sur 0 -- -- 90
2021-02-21 14:00:00 7.7 4 Sur 12 Sur 0 -- -- 98
2021-02-21 13:00:00 5.5 12 Sur 22 Sur 0.2 -- -- 100
2021-02-21 12:00:00 5.3 10 Sur 15 Sur 2 -- -- 100
2021-02-21 11:00:00 5.6 7 Sur 11 Sur 1.4 -- -- 100
2021-02-21 10:00:00 5.7 5 Sudeste 17 Sur 2.2 -- -- 100
2021-02-21 09:00:00 6 3 Sur 8 Noroeste 2.4 -- -- 100
2021-02-21 08:00:00 6.3 2 Norte 9 Norte 2 -- -- 100
2021-02-21 07:00:00 6.4 6 Norte 8 Norte 1 -- -- 100
2021-02-21 06:00:00 6.7 3 Sur 9 Sudeste 0.2 -- -- 100
2021-02-21 05:00:00 7 3 Sur 6 Sur 0.4 -- -- 100
2021-02-21 04:00:00 7 0 Calma 8 Sur 0.4 -- -- 100
2021-02-21 03:00:00 7.1 0 Calma 7 Sur 0.6 -- -- 100
2021-02-21 02:00:00 7.3 4 Sur 12 Sur 2.2 -- -- 99
2021-02-21 01:00:00 7.6 6 Sur 15 Sur 1.6 -- -- 98
2021-02-21 00:00:00 8 8 Sur 23 Sur 3 -- -- 97
2021-02-20 23:00:00 8.8 10 Sur 18 Sur 3.2 -- -- 96
2021-02-20 22:00:00 9.5 2 Sudoeste 22 Sur 0.6 -- -- 92
2021-02-20 21:00:00 10.2 14 Sur 34 Sur 0.4 -- -- 88
2021-02-20 20:00:00 10.2 19 Sur 46 Sur 0.2 -- -- 87
2021-02-20 19:00:00 10.9 33 Sur 63 Sur 0.2 -- -- 82
2021-02-20 18:00:00 12.3 31 Sur 59 Sur 0 -- -- 76
2021-02-20 17:00:00 14.1 27 Sur 75 Sur 0 -- -- 71
2021-02-20 16:00:00 15.2 50 Sur 93 Sur 0 -- -- 63
2021-02-20 15:00:00 15.8 50 Sur 95 Sudoeste 0 -- -- 61
2021-02-20 14:00:00 15.6 55 Sur 97 Sur 0 -- -- 61
2021-02-20 13:00:00 15.5 61 Sur 98 Sur 0 -- -- 60
2021-02-20 12:00:00 15.2 60 Sur 104 Sudoeste 0 -- -- 62
2021-02-20 11:00:00 15.6 58 Sur 90 Sur 0 -- -- 59
2021-02-20 10:00:00 15.8 62 Sur 96 Sur 0 -- -- 55
2021-02-20 09:00:00 15.5 52 Sur 86 Sudoeste 0 -- -- 54
2021-02-20 08:00:00 15.4 55 Sur 88 Sur 0 -- -- 54
2021-02-20 07:00:00 15.4 44 Sur 89 Sur 0 -- -- 55
2021-02-20 06:00:00 15.2 45 Sur 90 Sur 0 -- -- 55
2021-02-20 05:00:00 15.4 46 Sur 89 Sur 0 -- -- 54
2021-02-20 04:00:00 15.3 44 Sur 102 Sur 0 -- -- 53
2021-02-20 03:00:00 15.2 37 Sur 80 Sur 0 -- -- 54
2021-02-20 02:00:00 15.2 46 Sur 91 Sur 0 -- -- 54
2021-02-20 01:00:00 15 32 Sur 73 Sur 0 -- -- 57
2021-02-20 00:00:00 15.4 39 Sur 69 Sudoeste 0 -- -- 57
2021-02-19 23:00:00 15.1 34 Sur 58 Sur 0 -- -- 59
2021-02-19 22:00:00 15 31 Sur 58 Sur 0 -- -- 59
2021-02-19 21:00:00 15.1 38 Sur 78 Sudoeste 0 -- -- 58
2021-02-19 20:00:00 15.3 40 Sur 87 Sur 0 -- -- 58
2021-02-19 19:00:00 15.6 42 Sur 72 Sur 0 -- -- 59
2021-02-19 18:00:00 15.7 31 Sur 82 Sur 0 -- -- 58
2021-02-19 17:00:00 16.6 34 Sur 59 Sur 0 -- -- 56
2021-02-19 16:00:00 15.8 35 Sur 76 Sur 0 -- -- 60
2021-02-19 15:00:00 15.8 34 Sur 76 Sudoeste 0 -- -- 60
2021-02-19 14:00:00 15.9 40 Sur 81 Sur 0 -- -- 58
2021-02-19 13:00:00 15.6 46 Sur 85 Sur 0 -- -- 58
2021-02-19 12:00:00 15.3 35 Sur 73 Sur 0 -- -- 58
2021-02-19 11:00:00 14.6 41 Sur 84 Sur 0 -- -- 61
2021-02-19 10:00:00 13.7 51 Sur 95 Sudeste 0 -- -- 62
2021-02-19 09:00:00 13.4 50 Sur 82 Sur 0 -- -- 62
2021-02-19 08:00:00 13.2 44 Sur 80 Sur 0 -- -- 62
2021-02-19 07:00:00 12.7 40 Sur 87 Sur 0 -- -- 63
2021-02-19 06:00:00 12.4 49 Sur 81 Sur 0 -- -- 64
2021-02-19 05:00:00 12.1 41 Sur 67 Sur 0 -- -- 68
2021-02-19 04:00:00 12 35 Sur 77 Sur 0 -- -- 65
2021-02-19 03:00:00 11.7 49 Sur 84 Sur 0 -- -- 64
2021-02-19 02:00:00 11.2 38 Sur 69 Sur 0 -- -- 66
2021-02-19 01:00:00 10.4 42 Sur 78 Sur 0 -- -- 70
2021-02-19 00:00:00 10.3 34 Sur 69 Sur 0 -- -- 73
2021-02-18 23:00:00 9.9 24 Sur 47 Sur 0.2 -- -- 77
2021-02-18 22:00:00 9 13 Sur 25 Sur 0 -- -- 80
2021-02-18 21:00:00 8.9 13 Sur 29 Sur 0 -- -- 79
2021-02-18 20:00:00 8.9 12 Sur 24 Sur 0 -- -- 82
2021-02-18 19:00:00 10.4 5 Sudoeste 24 Sur 0 -- -- 75
2021-02-18 18:00:00 11.5 15 Sur 31 Sur 0 -- -- 68
2021-02-18 17:00:00 11.9 17 Sur 29 Sur 0.2 -- -- 73
2021-02-18 16:00:00 12 19 Sur 38 Sur 0 -- -- 69
2021-02-18 15:00:00 12.6 21 Sur 40 Sur 0 -- -- 71
2021-02-18 14:00:00 11.8 20 Sur 35 Sur 0 -- -- 76
2021-02-18 13:00:00 9.8 19 Sur 31 Sur 0 -- -- 84
2021-02-18 12:00:00 9.6 21 Sur 35 Sur 0 -- -- 89
2021-02-18 11:00:00 8.3 21 Sur 35 Sudeste 0 -- -- 95
2021-02-18 10:00:00 7.9 16 Sur 31 Sur 0.6 -- -- 97
2021-02-18 09:00:00 7.9 13 Sur 35 Sur 0.4 -- -- 97
2021-02-18 08:00:00 7.8 16 Sur 38 Sur 2 -- -- 96
2021-02-18 07:00:00 8.5 30 Sur 51 Sur 1.8 -- -- 93
2021-02-18 06:00:00 10.4 35 Sur 71 Sur 0.4 -- -- 86
2021-02-18 05:00:00 11.6 45 Sur 76 Sur 0 -- -- 78
2021-02-18 04:00:00 11.4 43 Sur 76 Sur 0.4 -- -- 84
2021-02-18 03:00:00 11.1 53 Sur 86 Sur 1.4 -- -- 85
2021-02-18 02:00:00 12.9 50 Sur 82 Sur 0 -- -- 72
2021-02-18 01:00:00 12.4 51 Sur 85 Sur 0.2 -- -- 76
2021-02-18 00:00:00 12.1 55 Sur 88 Sur 0 -- -- 79
2021-02-17 23:00:00 12.7 54 Sur 90 Sur 0.2 -- -- 78
2021-02-17 22:00:00 11.1 47 Sur 82 Sur 0.6 -- -- 86
2021-02-17 21:00:00 11.8 36 Sur 73 Sur 0.8 -- -- 83
2021-02-17 20:00:00 13.1 40 Sur 68 Sur 0 -- -- 77
2021-02-17 19:00:00 13.9 26 Sur 49 Sur 0 -- -- 71
2021-02-17 18:00:00 14 19 Sur 55 Sur 0 -- -- 70
2021-02-17 17:00:00 14.6 31 Sur 62 Sur 0 -- -- 65
2021-02-17 16:00:00 15.3 34 Sur 70 Sur 0 -- -- 59
2021-02-17 15:00:00 15.3 43 Sur 71 Sur 0 -- -- 55
2021-02-17 14:00:00 14.4 38 Sur 65 Sur 0 -- -- 57
2021-02-17 13:00:00 13.5 35 Sur 61 Sur 0 -- -- 61
2021-02-17 12:00:00 13.1 26 Sur 55 Sur 0 -- -- 67
2021-02-17 11:00:00 12.9 33 Sur 50 Sur 0 -- -- 64
2021-02-17 10:00:00 10.3 21 Sur 32 Sudoeste 0 -- -- 72
2021-02-17 09:00:00 7.6 7 Sudoeste 23 Sudeste 0 -- -- 77
2021-02-17 08:00:00 7 4 Oeste 19 Sudoeste 0 -- -- 79
2021-02-17 07:00:00 7 3 Sudoeste 23 Sur 0 -- -- 79
2021-02-17 06:00:00 8.4 16 Sur 38 Sur 0 -- -- 77
2021-02-17 05:00:00 7.9 11 Sur 31 Sudoeste 0 -- -- 78
2021-02-17 04:00:00 9.3 19 Sur 40 Sur 0 -- -- 72
2021-02-17 03:00:00 9.3 17 Sur 38 Sur 0 -- -- 72
2021-02-17 02:00:00 9.4 18 Sur 43 Sur 0 -- -- 73
2021-02-17 01:00:00 9.7 24 Sur 46 Sur 0 -- -- 69
2021-02-17 00:00:00 10.1 25 Sur 43 Sur 0 -- -- 68
2021-02-16 23:00:00 9.9 21 Sur 39 Sur 0 -- -- 69
2021-02-16 22:00:00 9.5 14 Sur 36 Sur 0 -- -- 73
2021-02-16 21:00:00 9.2 11 Sudoeste 31 Sur 0 -- -- 75
2021-02-16 20:00:00 11.1 17 Sur 37 Sur 0 -- -- 68
2021-02-16 19:00:00 11.9 16 Sur 33 Sur 0 -- -- 64
2021-02-16 18:00:00 13.2 22 Sur 43 Sur 0 -- -- 58
2021-02-16 17:00:00 14.5 27 Sur 49 Sur 0 -- -- 54
2021-02-16 16:00:00 14.6 30 Sur 63 Sur 0 -- -- 58
2021-02-16 15:00:00 14.1 33 Sur 54 Sur 0 -- -- 62
2021-02-16 14:00:00 13.5 27 Sur 41 Sur 0 -- -- 73
2021-02-16 13:00:00 12 27 Sur 44 Sur 0 -- -- 81
2021-02-16 12:00:00 10.4 23 Sur 48 Sur 0 -- -- 91
2021-02-16 11:00:00 9.9 23 Sur 48 Sur 0.4 -- -- 93
2021-02-16 10:00:00 9 28 Sur 40 Sur 3.4 -- -- 94
2021-02-16 09:00:00 9.4 20 Sur 62 Sur 3.2 -- -- 86
2021-02-16 08:00:00 14.2 42 Sur 92 Sur 0 -- -- 56
2021-02-16 07:00:00 14.3 50 Sur 80 Sur 0 -- -- 56
2021-02-16 06:00:00 14.3 35 Sur 73 Sur 0 -- -- 57
2021-02-16 05:00:00 14.5 36 Sur 61 Sur 0 -- -- 57
2021-02-16 04:00:00 14.2 27 Sur 53 Sur 0 -- -- 57
2021-02-16 03:00:00 14.4 18 Sur 53 Sur 0 -- -- 54
2021-02-16 02:00:00 15.8 31 Sur 62 Sur 0 -- -- 49
2021-02-16 01:00:00 16.3 31 Sur 68 Sur 0 -- -- 46
2021-02-16 00:00:00 16.9 41 Sur 76 Sur 0 -- -- 42
2021-02-15 23:00:00 17 36 Sur 77 Sur 0 -- -- 42
2021-02-15 22:00:00 17.2 28 Sur 59 Sur 0 -- -- 43
2021-02-15 21:00:00 17.6 29 Sur 60 Sur 0 -- -- 43
2021-02-15 20:00:00 18.5 36 Sur 62 Sur 0 -- -- 39
2021-02-15 19:00:00 18.9 31 Sur 56 Sur 0 -- -- 39
2021-02-15 18:00:00 19.3 27 Sur 58 Sur 0 -- -- 38
2021-02-15 17:00:00 20.6 27 Sur 46 Sur 0 -- -- 36
2021-02-15 16:00:00 19.9 26 Sur 53 Sur 0 -- -- 35
2021-02-15 15:00:00 20.1 32 Sur 53 Sudoeste 0 -- -- 33
2021-02-15 14:00:00 19.2 30 Sur 57 Sur 0 -- -- 36
2021-02-15 13:00:00 18.5 28 Sur 55 Sur 0 -- -- 36
2021-02-15 12:00:00 17.6 33 Sur 52 Sur 0 -- -- 38
2021-02-15 11:00:00 16.1 31 Sur 60 Sur 0 -- -- 38
2021-02-15 10:00:00 15.8 37 Sur 63 Sur 0 -- -- 34
2021-02-15 09:00:00 15.8 36 Sur 60 Sur 0 -- -- 31
2021-02-15 08:00:00 15.9 39 Sur 67 Sur 0 -- -- 30
2021-02-15 07:00:00 16 37 Sur 69 Sur 0 -- -- 29
2021-02-15 06:00:00 15.8 36 Sur 64 Sur 0 -- -- 29
2021-02-15 05:00:00 15.9 37 Sur 63 Sur 0 -- -- 30
2021-02-15 04:00:00 16 36 Sur 63 Sur 0 -- -- 31
2021-02-15 03:00:00 15.9 38 Sur 69 Sur 0 -- -- 37
2021-02-15 02:00:00 16 37 Sur 67 Sudoeste 0 -- -- 40
2021-02-15 01:00:00 16.1 42 Sur 73 Sur 0 -- -- 42
2021-02-15 00:00:00 16 41 Sur 74 Sur 0 -- -- 46
2021-02-14 23:00:00 16.5 48 Sur 85 Sur 0 -- -- 44
2021-02-14 22:00:00 17 48 Sur 84 Sur 0 -- -- 42
2021-02-14 21:00:00 17.1 46 Sur 74 Sur 0 -- -- 45
2021-02-14 20:00:00 17.3 28 Sur 58 Sur 0 -- -- 45
2021-02-14 19:00:00 17.6 34 Sur 63 Sur 0 -- -- 46
2021-02-14 18:00:00 18.1 31 Sur 63 Sudoeste 0 -- -- 47
2021-02-14 17:00:00 19 32 Sur 58 Sur 0 -- -- 45
2021-02-14 16:00:00 19.7 33 Sur 59 Sur 0 -- -- 43
2021-02-14 15:00:00 19.7 27 Sur 42 Sur 0 -- -- 43
2021-02-14 14:00:00 17.7 4 Nordeste 30 Sur 0 -- -- 54
2021-02-14 13:00:00 17 19 Sur 41 Sudeste 0 -- -- 56
2021-02-14 12:00:00 16.8 26 Sur 54 Sur 0 -- -- 55
2021-02-14 11:00:00 17.1 38 Sur 61 Sur 0 -- -- 53
2021-02-14 10:00:00 15.8 31 Sur 48 Sur 0 -- -- 58
2021-02-14 09:00:00 14.5 30 Sur 58 Sur 0 -- -- 62
2021-02-14 08:00:00 14.4 28 Sur 59 Sur 0 -- -- 64
2021-02-14 07:00:00 13.5 32 Sur 54 Sur 0 -- -- 70
2021-02-14 06:00:00 13.2 31 Sur 56 Sur 0 -- -- 71
2021-02-14 05:00:00 13.2 35 Sur 61 Sur 0 -- -- 72
2021-02-14 04:00:00 13.9 23 Sur 43 Sur 0 -- -- 72
2021-02-14 03:00:00 13.4 19 Sur 34 Sur 0 -- -- 76
2021-02-14 02:00:00 13.4 17 Sur 42 Sur 0 -- -- 77
2021-02-14 01:00:00 13.9 21 Sur 38 Sur 0 -- -- 75
2021-02-14 00:00:00 13.6 15 Sur 32 Sur 0 -- -- 77
2021-02-13 23:00:00 13.7 13 Sur 35 Sur 0 -- -- 77
2021-02-13 22:00:00 13.7 17 Sur 31 Sur 0 -- -- 78
2021-02-13 21:00:00 14 19 Sur 32 Sur 0 -- -- 78
2021-02-13 20:00:00 13.8 15 Sur 31 Sur 0 -- -- 79
2021-02-13 19:00:00 13.8 21 Sur 33 Sur 0 -- -- 79
2021-02-13 18:00:00 14.6 20 Sur 33 Sur 0 -- -- 76
2021-02-13 17:00:00 15.4 16 Sur 31 Sur 0 -- -- 74
2021-02-13 16:00:00 15.5 18 Sur 35 Sur 0 -- -- 72
2021-02-13 15:00:00 15.8 17 Sur 49 Sur 0 -- -- 74
2021-02-13 14:00:00 15.7 27 Sur 43 Sur 0 -- -- 71
2021-02-13 13:00:00 15.2 25 Sur 48 Sur 0 -- -- 73
2021-02-13 08:00:00 -- -- -- -- -- -- -- -- --
2021-02-13 07:00:00 -- -- -- -- -- -- -- -- --
2021-02-13 06:00:00 10.7 32 Sur 54 Sur 0 -- -- 72
2021-02-13 05:00:00 10.4 19 Sur 36 Sur 0 -- -- 73
2021-02-13 04:00:00 10.2 22 Sur 45 Sur 0 -- -- 75
2021-02-13 03:00:00 10.5 21 Sur 41 Sur 0 -- -- 75
2021-02-13 02:00:00 10.9 16 Sur 33 Sudoeste 0 -- -- 76
2021-02-13 01:00:00 10.3 18 Sur 37 Sur 0 -- -- 77
2021-02-13 00:00:00 10.4 18 Sur 35 Sur 0 -- -- 77
2021-02-12 23:00:00 10.1 11 Sur 28 Sur 0 -- -- 83
2021-02-12 22:00:00 8.5 4 Sur 14 Sudeste 0 -- -- 90
2021-02-12 21:00:00 8.6 6 Sur 14 Sur 0 -- -- 89
2021-02-12 20:00:00 9.3 3 Sudoeste 6 Sur 0 -- -- 86
2021-02-12 19:00:00 11 2 Sudoeste 20 Sur 0 -- -- 80
2021-02-12 18:00:00 13.3 11 Sur 29 Sur 0 -- -- 70
2021-02-12 17:00:00 14.4 17 Sur 32 Sur 0 -- -- 68
2021-02-12 16:00:00 14.1 18 Sur 33 Sur 0 -- -- 73
2021-02-12 15:00:00 13.9 17 Sur 29 Sur 0 -- -- 76
2021-02-12 14:00:00 12.7 18 Sur 33 Sur 0 -- -- 78
2021-02-12 13:00:00 11.5 23 Sur 37 Sur 0 -- -- 87
2021-02-12 12:00:00 10.9 19 Sur 33 Sur 0 -- -- 92
2021-02-12 11:00:00 10.5 19 Sur 33 Sur 0 -- -- 97
2021-02-12 10:00:00 9.7 9 Sur 24 Sur 0 -- -- 99
2021-02-12 09:00:00 9.4 12 Sur 29 Sur 0 -- -- 99
2021-02-12 08:00:00 9.4 13 Sur 29 Sur 1.4 -- -- 99
2021-02-12 07:00:00 9.8 9 Sur 30 Sur 2 -- -- 99
2021-02-12 06:00:00 10.1 11 Sur 23 Sur 1 -- -- 98
2021-02-12 05:00:00 10.7 8 Sur 22 Sudoeste 0.8 -- -- 97
2021-02-12 04:00:00 11.1 11 Sur 29 Sur 0 -- -- 96
2021-02-12 03:00:00 11.1 13 Sur 26 Sur 0 -- -- 97
2021-02-12 02:00:00 11.1 15 Sur 27 Sur 0.2 -- -- 98
2021-02-12 01:00:00 11 9 Sudoeste 40 Sudeste 0.6 -- -- 99
2021-02-12 00:00:00 11.2 12 Sur 32 Sur 2.2 -- -- 100
2021-02-11 23:00:00 11.4 6 Sudoeste 15 Sur 0.6 -- -- 100
2021-02-11 22:00:00 11.9 9 Sudoeste 24 Sur 2.2 -- -- 100
2021-02-11 21:00:00 11.9 8 Sur 12 Sur 1.8 -- -- 99
2021-02-11 20:00:00 12.3 6 Sur 10 Sur 4.2 -- -- 98
2021-02-11 19:00:00 13.3 5 Sur 18 Sudoeste 0.8 -- -- 92
2021-02-11 18:00:00 14.4 11 Sur 31 Sur 0.2 -- -- 86
2021-02-11 17:00:00 15.3 17 Sur 30 Sur 0 -- -- 81
2021-02-11 16:00:00 14.8 18 Sur 46 Sur 0 -- -- 85
2021-02-11 15:00:00 14.5 24 Sur 45 Sur 0.6 -- -- 89
2021-02-11 14:00:00 14.7 28 Sur 46 Sur 0.2 -- -- 85
2021-02-11 13:00:00 14.2 23 Sur 45 Sur 0.2 -- -- 85
2021-02-11 12:00:00 14.6 23 Sur 45 Sur 0 -- -- 82
2021-02-11 11:00:00 13.9 18 Sur 53 Sur 0.6 -- -- 87
2021-02-11 10:00:00 13.3 36 Sur 67 Sur 0.4 -- -- 86
2021-02-11 09:00:00 14.1 30 Sur 50 Sur 0 -- -- 81
2021-02-11 08:00:00 13.9 27 Sur 57 Sur 0 -- -- 83
2021-02-11 07:00:00 13.8 33 Sur 68 Sur 0 -- -- 85
2021-02-11 06:00:00 13.4 38 Sur 64 Sur 0 -- -- 87
2021-02-11 05:00:00 13.1 32 Sur 64 Sur 0 -- -- 88
2021-02-11 04:00:00 12.6 38 Sur 60 Sur 0 -- -- 92
2021-02-11 03:00:00 11.3 25 Sur 51 Sur 1.4 -- -- 95
2021-02-11 02:00:00 11.6 24 Sur 45 Sur 0.2 -- -- 88
2021-02-11 01:00:00 11 23 Sur 37 Sur 0 -- -- 84
2021-02-11 00:00:00 10.5 10 Sur 27 Sur 0 -- -- 77
2021-02-10 23:00:00 10.3 19 Sur 36 Sur 0 -- -- 77
2021-02-10 22:00:00 8 5 Sur 10 Sur 0 -- -- 92
2021-02-10 21:00:00 8.1 0 Calma 4 Sudoeste 0 -- -- 89
2021-02-10 20:00:00 8.5 0 Calma 8 Norte 0 -- -- 89
2021-02-10 19:00:00 10.1 0 Calma 16 Sur 0 -- -- 77
2021-02-10 18:00:00 11.6 14 Sur 25 Sur 0 -- -- 70
2021-02-10 17:00:00 13 17 Sur 34 Sur 0 -- -- 65
2021-02-10 16:00:00 12.2 20 Sur 37 Sur 0 -- -- 69
2021-02-10 15:00:00 11.2 22 Sur 40 Sur 0 -- -- 73
2021-02-10 14:00:00 9.5 23 Sur 42 Sur 0 -- -- 83
2021-02-10 13:00:00 8.3 23 Sur 40 Sur 0 -- -- 90
2021-02-10 12:00:00 7.9 21 Sur 34 Sur 0 -- -- 93
2021-02-10 11:00:00 7.4 23 Sur 39 Sur 0 -- -- 91
2021-02-10 10:00:00 7.1 22 Sur 41 Sur 0 -- -- 92
2021-02-10 09:00:00 6.8 19 Sur 40 Sur 0 -- -- 92
2021-02-10 08:00:00 6.6 19 Sur 40 Sur 0 -- -- 92
2021-02-10 07:00:00 6.7 21 Sur 38 Sur 0 -- -- 91
2021-02-10 06:00:00 6 16 Sur 30 Sur 0 -- -- 94
2021-02-10 05:00:00 5.9 14 Sur 28 Sur 0 -- -- 94
2021-02-10 04:00:00 5.6 9 Sur 22 Sur 0 -- -- 95
2021-02-10 03:00:00 6.1 14 Sur 26 Sudeste 0.2 -- -- 95
2021-02-10 02:00:00 6 14 Sur 30 Sur 0 -- -- 95
2021-02-10 01:00:00 5.8 21 Sur 46 Sur 0.6 -- -- 94
2021-02-10 00:00:00 6.3 25 Sur 47 Sur 0.4 -- -- 91
2021-02-09 23:00:00 7 19 Sur 40 Sur 0 -- -- 89
2021-02-09 22:00:00 6.4 19 Sur 48 Sur 0.4 -- -- 93
2021-02-09 21:00:00 6.5 26 Sur 46 Sur 0.2 -- -- 90
2021-02-09 20:00:00 6.9 25 Sur 52 Sur 0 -- -- 84
2021-02-09 19:00:00 6.3 27 Sur 58 Sur 0 -- -- 86
2021-02-09 18:00:00 8.6 29 Sur 55 Sur 0 -- -- 77
2021-02-09 17:00:00 8.7 25 Sur 55 Sur 0.2 -- -- 79
2021-02-09 16:00:00 8.6 27 Sur 60 Sur 0 -- -- 81
2021-02-09 15:00:00 8.3 26 Sur 57 Sur 0.2 -- -- 81
2021-02-09 14:00:00 8.9 27 Sur 54 Sur 0 -- -- 86
2021-02-09 13:00:00 6.7 30 Sur 58 Sur 1.2 -- -- 91
2021-02-09 12:00:00 8.4 32 Sur 72 Sur 0 -- -- 82
2021-02-09 11:00:00 7.8 42 Sur 73 Sur 0 -- -- 84
2021-02-09 10:00:00 8 41 Sur 64 Sur 0 -- -- 83
2021-02-09 09:00:00 7.2 32 Sur 58 Sur 4.2 -- -- 93
2021-02-09 08:00:00 8.7 35 Sur 69 Sur 1.2 -- -- 90
2021-02-09 07:00:00 9 48 Sur 86 Sur 4.2 -- -- 91
2021-02-09 06:00:00 10.1 53 Sur 87 Sur 0 -- -- 81
2021-02-09 05:00:00 10.7 48 Sur 85 Sur 0 -- -- 75
2021-02-09 04:00:00 10.2 50 Sur 83 Sur 0 -- -- 76
2021-02-09 03:00:00 9.6 41 Sur 67 Sur 0 -- -- 79
2021-02-09 02:00:00 8.8 34 Sur 75 Sur 0.2 -- -- 85
2021-02-09 01:00:00 8.9 38 Sur 66 Sur 0 -- -- 83
2021-02-09 00:00:00 9.5 39 Sur 58 Sur 0 -- -- 78
2021-02-08 23:00:00 9.3 29 Sur 57 Sur 0 -- -- 82
2021-02-08 22:00:00 9.3 31 Sur 54 Sur 0 -- -- 88
2021-02-08 21:00:00 9.2 29 Sur 52 Sur 0 -- -- 90
2021-02-08 20:00:00 9.6 21 Sur 36 Sur 0 -- -- 88
2021-02-08 19:00:00 9.7 18 Sur 34 Sur 0 -- -- 87
2021-02-08 18:00:00 10.1 18 Sur 34 Sur 0 -- -- 83
2021-02-08 17:00:00 10.8 20 Sur 33 Sudeste 0 -- -- 81
2021-02-08 16:00:00 10.7 19 Sur 34 Sur 0 -- -- 85
2021-02-08 15:00:00 9.8 17 Sur 44 Sudoeste 0 -- -- 87
2021-02-08 14:00:00 8.6 28 Sur 51 Sur 0 -- -- 88
2021-02-08 13:00:00 9.7 32 Sur 53 Sur 0.2 -- -- 79
2021-02-08 12:00:00 8.6 29 Sur 49 Sur 0 -- -- 84
2021-02-08 11:00:00 8.7 25 Sur 54 Sur 0 -- -- 84
2021-02-08 10:00:00 8 29 Sur 54 Sur 0 -- -- 85
2021-02-08 09:00:00 7.9 32 Sur 50 Sur 0 -- -- 86
2021-02-08 08:00:00 8 23 Sur 41 Sur 0 -- -- 89
2021-02-08 07:00:00 7.9 18 Sur 39 Sur 0 -- -- 89
2021-02-08 06:00:00 7.9 19 Sur 42 Sur 0 -- -- 90
2021-02-08 05:00:00 8.3 26 Sur 44 Sur 0 -- -- 92
2021-02-08 04:00:00 8 22 Sur 44 Sur 0 -- -- 93
2021-02-08 03:00:00 8.5 21 Sur 39 Sur 0 -- -- 95
2021-02-08 02:00:00 8.1 18 Sur 48 Sur 1 -- -- 97
2021-02-08 01:00:00 8.6 18 Sur 32 Sur 1.6 -- -- 97
2021-02-08 00:00:00 9 18 Sur 60 Sur 1 -- -- 92
2021-02-07 23:00:00 10.1 33 Sur 58 Sur 0.4 -- -- 86
2021-02-07 22:00:00 10.9 28 Sur 59 Sur 0 -- -- 84
2021-02-07 21:00:00 9.9 32 Sur 75 Sur 0.4 -- -- 90
2021-02-07 20:00:00 10.7 38 Sur 79 Sur 0 -- -- 83
2021-02-07 19:00:00 10.1 42 Sur 70 Sur 0 -- -- 84
2021-02-07 18:00:00 9.4 45 Sur 74 Sudoeste 0 -- -- 86
2021-02-07 17:00:00 9.5 38 Sur 66 Sur 0 -- -- 84
2021-02-07 16:00:00 7.9 38 Sur 68 Sur 0 -- -- 89
2021-02-07 15:00:00 7.1 31 Sur 61 Sur 0.2 -- -- 92
2021-02-07 14:00:00 6.5 32 Sur 61 Sudeste 0.2 -- -- 94
2021-02-07 13:00:00 5.7 31 Sur 55 Sur 0.2 -- -- 96
2021-02-07 12:00:00 5.2 27 Sur 55 Sur 0.2 -- -- 98
2021-02-07 11:00:00 4.6 19 Sur 41 Sur 0 -- -- 99
2021-02-07 10:00:00 4.3 23 Sur 36 Sur 0 -- -- 100
2021-02-07 09:00:00 3.4 15 Sur 26 Sur 0 -- -- 100
2021-02-07 08:00:00 2.4 6 Sur 14 Sur 0 -- -- 100
2021-02-07 07:00:00 2.1 6 Sudoeste 17 Sur 0 -- -- 100
2021-02-07 06:00:00 1.2 10 Sur 17 Sur 0 -- -- 100
2021-02-07 05:00:00 1.4 7 Sur 14 Sur 0 -- -- 100
2021-02-07 04:00:00 1.7 8 Sur 15 Sur 0 -- -- 100
2021-02-07 03:00:00 2.3 7 Sudoeste 11 Sur 0 -- -- 100
2021-02-07 02:00:00 2.8 8 Sur 16 Sur 0 -- -- 100
2021-02-07 01:00:00 3.1 5 Sur 13 Sur 0 -- -- 100
2021-02-07 00:00:00 3.8 5 Sur 11 Sur 0.4 -- -- 100
2021-02-06 23:00:00 3.8 6 Sur 12 Sur 0 -- -- 100
2021-02-06 22:00:00 4.4 6 Sur 14 Noroeste 1.4 -- -- 100
2021-02-06 21:00:00 4.7 2 Sudoeste 10 Norte 0.2 -- -- 100
2021-02-06 20:00:00 5.2 4 Norte 9 Norte 0 -- -- 100
2021-02-06 19:00:00 5.4 0 Calma 12 Norte 0 -- -- 100
2021-02-06 18:00:00 6.2 10 Norte 26 Nordeste 0 -- -- 100
2021-02-06 17:00:00 6.6 21 Norte 34 Norte 0.2 -- -- 100
2021-02-06 16:00:00 6.8 16 Norte 32 Norte 0 -- -- 100
2021-02-06 15:00:00 6.9 21 Norte 28 Norte 0 -- -- 100
2021-02-06 14:00:00 5.9 11 Norte 28 Norte 0.2 -- -- 100
2021-02-06 13:00:00 5.8 21 Norte 41 Norte 0.4 -- -- 100
2021-02-06 12:00:00 6 23 Norte 38 Norte 1.2 -- -- 100
2021-02-06 11:00:00 5.7 24 Norte 37 Norte 2.6 -- -- 100
2021-02-06 10:00:00 6 28 Norte 39 Norte 1.6 -- -- 100
2021-02-06 09:00:00 6.1 27 Norte 45 Norte 0.4 -- -- 100
2021-02-06 08:00:00 6.3 31 Norte 49 Norte 0.6 -- -- 100
2021-02-06 07:00:00 6.6 34 Norte 50 Norte 3.8 -- -- 100
2021-02-06 06:00:00 6.4 17 Norte 35 Norte 0.8 -- -- 100
2021-02-06 05:00:00 6.5 23 Norte 33 Norte 0.6 -- -- 100
2021-02-06 04:00:00 6.3 23 Norte 32 Norte 0.2 -- -- 100
2021-02-06 03:00:00 6.4 21 Norte 39 Norte 0.4 -- -- 100
2021-02-06 02:00:00 6.5 21 Norte 32 Norte 0.6 -- -- 100
2021-02-06 01:00:00 6.3 22 Norte 46 Norte 0.8 -- -- 100
2021-02-06 00:00:00 6.7 21 Norte 33 Norte 1 -- -- 100
2021-02-05 23:00:00 6.8 26 Norte 40 Norte 1 -- -- 100
2021-02-05 22:00:00 7.2 22 Norte 40 Norte 2 -- -- 100
2021-02-05 21:00:00 7.2 26 Norte 39 Norte 1.4 -- -- 100
2021-02-05 20:00:00 7.3 26 Norte 42 Noroeste 1.6 -- -- 100
2021-02-05 19:00:00 7.4 27 Norte 46 Norte 1.4 -- -- 100
2021-02-05 18:00:00 7.7 26 Norte 46 Norte 1.4 -- -- 100
2021-02-05 17:00:00 7.5 26 Norte 40 Norte 1.4 -- -- 100
2021-02-05 16:00:00 7.7 23 Norte 37 Norte 0.4 -- -- 100
2021-02-05 15:00:00 7.9 22 Norte 34 Norte 0.6 -- -- 100
2021-02-05 14:00:00 7.7 25 Norte 36 Norte 0.4 -- -- 100
2021-02-05 13:00:00 8.3 18 Norte 29 Norte 0.4 -- -- 100
2021-02-05 12:00:00 8.3 14 Norte 17 Norte 0.2 -- -- 100
2021-02-05 11:00:00 7.9 9 Norte 13 Norte 0.4 -- -- 100
2021-02-05 10:00:00 7.6 9 Norte 14 Norte 0 -- -- 100
2021-02-05 09:00:00 7.3 9 Noroeste 13 Norte 0 -- -- 100
2021-02-05 08:00:00 7.1 3 Norte 6 Nordeste 0 -- -- 100
2021-02-05 07:00:00 7.4 4 Norte 6 Nordeste 0 -- -- 100
2021-02-05 06:00:00 7.9 3 Sur 4 Sur 0 -- -- 100
2021-02-05 05:00:00 7.7 3 Sur 5 Sur 0 -- -- 100
2021-02-05 04:00:00 7.7 3 Sudoeste 7 Sur 0 -- -- 99
2021-02-05 03:00:00 7.9 2 Sur 4 Sudoeste 0 -- -- 98
2021-02-05 02:00:00 7.7 2 Sudoeste 6 Sudoeste 0 -- -- 99
2021-02-05 01:00:00 7.4 4 Sudoeste 9 Sudoeste 0 -- -- 99
2021-02-05 00:00:00 7 0 Calma 6 Sur 0 -- -- 99
2021-02-04 23:00:00 7.1 4 Sur 7 Sur 0 -- -- 99
2021-02-04 22:00:00 7.1 3 Sur 9 Sur 0 -- -- 99
2021-02-04 21:00:00 7.9 0 Calma 5 Sur 0.2 -- -- 98
2021-02-04 20:00:00 8.1 4 Sur 5 Sur 0 -- -- 97
2021-02-04 19:00:00 8.7 2 Norte 6 Nordeste 0 -- -- 96
2021-02-04 18:00:00 9.5 0 Calma 8 Norte 0 -- -- 95
2021-02-04 17:00:00 10 3 Norte 10 Norte 0.6 -- -- 92
2021-02-04 16:00:00 11.3 8 Norte 10 Norte 0 -- -- 82
2021-02-04 15:00:00 11.2 6 Norte 12 Norte 0 -- -- 83
2021-02-04 14:00:00 11.4 8 Norte 21 Sudoeste 0 -- -- 79
2021-02-04 13:00:00 11.7 10 Sur 16 Sudoeste 0 -- -- 74
2021-02-04 12:00:00 10.3 3 Norte 10 Sur 0 -- -- 82
2021-02-04 11:00:00 9.5 4 Sur 5 Sur 0 -- -- 82
2021-02-04 10:00:00 8.1 0 Calma 3 Noroeste 0 -- -- 83
2021-02-04 09:00:00 7.9 0 Calma 28 Sudeste 0 -- -- 79
2021-02-04 08:00:00 9.1 13 Sur 38 Sur 0 -- -- 76
2021-02-04 07:00:00 9.7 20 Sur 48 Sur 0 -- -- 74
2021-02-04 06:00:00 9.8 21 Sur 55 Sur 0 -- -- 73
2021-02-04 05:00:00 9.8 26 Sur 62 Sur 0 -- -- 75
2021-02-04 04:00:00 10.1 36 Sur 64 Sur 0 -- -- 72
2021-02-04 03:00:00 10.4 37 Sur 75 Sur 0 -- -- 70
2021-02-04 02:00:00 10.5 42 Sur 69 Sur 0 -- -- 69
2021-02-04 01:00:00 10.6 39 Sur 70 Sur 0 -- -- 70
2021-02-04 00:00:00 10.4 39 Sur 69 Sur 0 -- -- 73
2021-02-03 23:00:00 10.6 40 Sur 72 Sur 0 -- -- 72
2021-02-03 22:00:00 10.8 38 Sur 60 Sur 0 -- -- 73
2021-02-03 21:00:00 10.6 36 Sur 55 Sur 0 -- -- 76
2021-02-03 20:00:00 10 30 Sur 56 Sur 0.2 -- -- 81
2021-02-03 19:00:00 11.6 36 Sur 66 Sur 0 -- -- 70
2021-02-03 18:00:00 12.3 35 Sur 60 Sudeste 0 -- -- 65
2021-02-03 17:00:00 13.4 30 Sur 59 Sur 0 -- -- 63
2021-02-03 16:00:00 14.1 39 Sur 68 Sur 0 -- -- 60
2021-02-03 15:00:00 14 33 Sur 68 Sur 0 -- -- 61
2021-02-03 14:00:00 13.6 38 Sur 64 Sur 0 -- -- 64
2021-02-03 13:00:00 13.1 41 Sur 68 Sur 0 -- -- 64
2021-02-03 12:00:00 12.1 39 Sur 72 Sur 0 -- -- 69
2021-02-03 11:00:00 11.3 44 Sur 70 Sudoeste 0 -- -- 72
2021-02-03 10:00:00 10.3 38 Sur 67 Sur 0 -- -- 78
2021-02-03 09:00:00 9.8 36 Sur 63 Sur 0 -- -- 80
2021-02-03 08:00:00 9.5 40 Sur 65 Sur 0 -- -- 85
2021-02-03 07:00:00 9.2 41 Sur 64 Sur 0.2 -- -- 89
2021-02-03 06:00:00 8.2 38 Sur 69 Sur 2.2 -- -- 88
2021-02-03 05:00:00 10.6 36 Sur 73 Sur 0 -- -- 77
2021-02-03 04:00:00 11.1 46 Sur 77 Sur 0 -- -- 79
2021-02-03 03:00:00 11.5 46 Sur 68 Sur 0 -- -- 86
2021-02-03 02:00:00 11.2 39 Sur 80 Sudoeste 1.2 -- -- 93
2021-02-03 01:00:00 12.3 44 Sur 76 Sur 0.2 -- -- 87
2021-02-03 00:00:00 11.6 43 Sur 68 Sur 0.6 -- -- 93
2021-02-02 23:00:00 12.8 42 Sur 77 Sur 0.6 -- -- 86
2021-02-02 22:00:00 12.6 45 Sur 72 Sur 0.6 -- -- 90
2021-02-02 21:00:00 12.1 37 Sur 66 Sudoeste 0.8 -- -- 91
2021-02-02 20:00:00 12.3 38 Sur 64 Sur 0.2 -- -- 87
2021-02-02 19:00:00 12 29 Sur 76 Sur 1 -- -- 88
2021-02-02 18:00:00 12.4 41 Sur 82 Sur 1.4 -- -- 90
2021-02-02 17:00:00 12.4 45 Sur 72 Sur 2.2 -- -- 91
2021-02-02 16:00:00 14.9 37 Sur 79 Sur 0 -- -- 76
2021-02-02 15:00:00 15.3 44 Sur 94 Sur 0.2 -- -- 74
2021-02-02 14:00:00 15.4 44 Sur 93 Sur 0 -- -- 74
2021-02-02 13:00:00 14.8 48 Sur 81 Sur 0 -- -- 76
2021-02-02 12:00:00 13.2 49 Sur 96 Sur 0.2 -- -- 85
2021-02-02 11:00:00 14.5 57 Sur 78 Sur 0 -- -- 74
2021-02-02 10:00:00 13.7 48 Sur 91 Sur 0 -- -- 77
2021-02-02 09:00:00 13.5 54 Sur 88 Sur 0.2 -- -- 78
2021-02-02 08:00:00 12.6 55 Sur 80 Sur 0 -- -- 85
2021-02-02 07:00:00 13.4 51 Sur 92 Sur 0 -- -- 76
2021-02-02 06:00:00 13.5 51 Sur 90 Sur 0 -- -- 76
2021-02-02 05:00:00 13.2 45 Sur 70 Sur 0 -- -- 77
2021-02-02 04:00:00 13.1 42 Sur 76 Sur 0 -- -- 79
2021-02-02 03:00:00 12.9 44 Sur 77 Sur 0 -- -- 81
2021-02-02 02:00:00 12.6 39 Sur 72 Sur 0 -- -- 87
2021-02-02 01:00:00 12.3 31 Sur 76 Sur 0 -- -- 90
2021-02-02 00:00:00 13 45 Sur 83 Sur 0 -- -- 86
2021-02-01 23:00:00 13.2 40 Sur 64 Sur 0 -- -- 88
2021-02-01 22:00:00 13.8 39 Sur 78 Sur 0 -- -- 83
2021-02-01 21:00:00 14.5 48 Sur 84 Sur 0 -- -- 80
2021-02-01 20:00:00 14.2 40 Sur 75 Sur 0 -- -- 81
2021-02-01 19:00:00 13.7 37 Sur 61 Sur 0 -- -- 83
2021-02-01 18:00:00 14.1 39 Sur 68 Sur 0 -- -- 79
2021-02-01 17:00:00 13.8 35 Sur 71 Sur 0 -- -- 78
2021-02-01 16:00:00 14.9 38 Sur 67 Sur 0 -- -- 73
2021-02-01 15:00:00 13.7 40 Sur 70 Sur 0 -- -- 80
2021-02-01 14:00:00 13.7 41 Sur 64 Sudoeste 0 -- -- 79
2021-02-01 13:00:00 13.6 36 Sur 65 Sur 0 -- -- 81
2021-02-01 12:00:00 12.8 40 Sur 58 Sur 0 -- -- 87
2021-02-01 11:00:00 12.1 36 Sur 60 Sur 0 -- -- 89
2021-02-01 10:00:00 11.7 36 Sur 58 Sur 0 -- -- 90
2021-02-01 09:00:00 11.9 32 Sur 64 Sur 0 -- -- 85
2021-02-01 08:00:00 12.3 40 Sur 68 Sudeste 0 -- -- 81
2021-02-01 07:00:00 12.6 40 Sur 76 Sur 0 -- -- 78
2021-02-01 06:00:00 12.3 44 Sur 72 Sur 0 -- -- 77
2021-02-01 05:00:00 12 37 Sur 74 Sur 0 -- -- 76
2021-02-01 04:00:00 12 38 Sur 73 Sur 0 -- -- 78
2021-02-01 03:00:00 12 35 Sur 62 Sur 0 -- -- 79
2021-02-01 02:00:00 12 31 Sur 62 Sur 0 -- -- 80
2021-02-01 01:00:00 12 31 Sur 55 Sur 0 -- -- 81
2021-02-01 00:00:00 12.1 35 Sur 66 Sur 0 -- -- 80